sensor_id;sensor_type;location;lat;lon;timestamp;temperature;humidity
20829;DHT22;10575;50.124;8.582;2022-07-29T00:01:53;23.40;50.60
20829;DHT22;10575;50.124;8.582;2022-07-29T00:04:18;23.40;50.50
20829;DHT22;10575;50.124;8.582;2022-07-29T00:06:45;23.40;49.90
20829;DHT22;10575;50.124;8.582;2022-07-29T00:09:10;23.30;50.30
20829;DHT22;10575;50.124;8.582;2022-07-29T00:11:36;23.30;50.20
20829;DHT22;10575;50.124;8.582;2022-07-29T00:14:02;23.40;50.50
20829;DHT22;10575;50.124;8.582;2022-07-29T00:16:27;23.50;50.40
20829;DHT22;10575;50.124;8.582;2022-07-29T00:18:53;23.50;50.80
20829;DHT22;10575;50.124;8.582;2022-07-29T00:21:18;23.60;53.40
20829;DHT22;10575;50.124;8.582;2022-07-29T00:23:44;23.60;59.00
20829;DHT22;10575;50.124;8.582;2022-07-29T00:26:09;23.50;62.30
20829;DHT22;10575;50.124;8.582;2022-07-29T00:28:35;23.30;62.90
20829;DHT22;10575;50.124;8.582;2022-07-29T00:31:00;23.20;63.70
20829;DHT22;10575;50.124;8.582;2022-07-29T00:33:26;23.10;64.30
20829;DHT22;10575;50.124;8.582;2022-07-29T00:35:51;23.10;61.30
20829;DHT22;10575;50.124;8.582;2022-07-29T00:38:19;22.90;60.00
20829;DHT22;10575;50.124;8.582;2022-07-29T00:40:45;22.80;58.80
20829;DHT22;10575;50.124;8.582;2022-07-29T00:43:13;22.80;58.10
20829;DHT22;10575;50.124;8.582;2022-07-29T00:45:40;22.70;59.20
20829;DHT22;10575;50.124;8.582;2022-07-29T00:48:06;22.70;59.80
20829;DHT22;10575;50.124;8.582;2022-07-29T00:50:34;22.70;59.80
20829;DHT22;10575;50.124;8.582;2022-07-29T00:53:00;22.70;57.00
20829;DHT22;10575;50.124;8.582;2022-07-29T00:55:26;22.70;56.80
20829;DHT22;10575;50.124;8.582;2022-07-29T00:57:52;22.70;57.00
20829;DHT22;10575;50.124;8.582;2022-07-29T01:00:21;22.60;56.70
20829;DHT22;10575;50.124;8.582;2022-07-29T01:02:47;22.60;56.80
20829;DHT22;10575;50.124;8.582;2022-07-29T01:05:14;22.70;57.10
20829;DHT22;10575;50.124;8.582;2022-07-29T01:07:40;22.60;57.10
20829;DHT22;10575;50.124;8.582;2022-07-29T01:10:09;22.70;56.60
20829;DHT22;10575;50.124;8.582;2022-07-29T01:12:35;22.70;56.10
20829;DHT22;10575;50.124;8.582;2022-07-29T01:15:03;22.70;56.40
20829;DHT22;10575;50.124;8.582;2022-07-29T01:20:40;22.80;56.70
20829;DHT22;10575;50.124;8.582;2022-07-29T01:23:26;22.90;56.70
20829;DHT22;10575;50.124;8.582;2022-07-29T01:26:21;22.80;56.90
20829;DHT22;10575;50.124;8.582;2022-07-29T01:28:56;22.80;57.20
20829;DHT22;10575;50.124;8.582;2022-07-29T01:31:54;22.80;58.00
20829;DHT22;10575;50.124;8.582;2022-07-29T01:34:30;22.80;58.10
20829;DHT22;10575;50.124;8.582;2022-07-29T01:37:22;22.80;58.40
20829;DHT22;10575;50.124;8.582;2022-07-29T01:39:54;22.90;58.90
20829;DHT22;10575;50.124;8.582;2022-07-29T01:42:33;22.80;58.80
20829;DHT22;10575;50.124;8.582;2022-07-29T01:47:37;22.80;57.90
20829;DHT22;10575;50.124;8.582;2022-07-29T01:50:11;22.70;55.30
20829;DHT22;10575;50.124;8.582;2022-07-29T01:53:04;22.70;54.70
20829;DHT22;10575;50.124;8.582;2022-07-29T01:55:38;22.70;54.60
20829;DHT22;10575;50.124;8.582;2022-07-29T01:58:05;22.80;55.80
20829;DHT22;10575;50.124;8.582;2022-07-29T02:00:33;22.90;55.70
20829;DHT22;10575;50.124;8.582;2022-07-29T02:03:02;22.90;54.70
20829;DHT22;10575;50.124;8.582;2022-07-29T02:05:29;22.90;56.70
20829;DHT22;10575;50.124;8.582;2022-07-29T02:07:56;22.80;55.90
20829;DHT22;10575;50.124;8.582;2022-07-29T02:10:27;22.80;55.20
20829;DHT22;10575;50.124;8.582;2022-07-29T02:12:54;22.70;54.40
20829;DHT22;10575;50.124;8.582;2022-07-29T02:15:22;22.60;54.60
20829;DHT22;10575;50.124;8.582;2022-07-29T02:18:04;22.50;54.80
20829;DHT22;10575;50.124;8.582;2022-07-29T02:20:30;22.50;55.30
20829;DHT22;10575;50.124;8.582;2022-07-29T02:22:57;22.40;55.10
20829;DHT22;10575;50.124;8.582;2022-07-29T02:25:24;22.40;55.80
20829;DHT22;10575;50.124;8.582;2022-07-29T02:27:51;22.40;55.80
20829;DHT22;10575;50.124;8.582;2022-07-29T02:30:18;22.30;56.30
20829;DHT22;10575;50.124;8.582;2022-07-29T02:32:46;22.30;56.80
20829;DHT22;10575;50.124;8.582;2022-07-29T02:35:14;22.30;57.00
20829;DHT22;10575;50.124;8.582;2022-07-29T02:37:41;22.30;57.30
20829;DHT22;10575;50.124;8.582;2022-07-29T02:40:11;22.30;57.70
20829;DHT22;10575;50.124;8.582;2022-07-29T02:42:38;22.20;59.00
20829;DHT22;10575;50.124;8.582;2022-07-29T02:45:06;22.20;59.90
20829;DHT22;10575;50.124;8.582;2022-07-29T02:47:47;22.20;60.00
20829;DHT22;10575;50.124;8.582;2022-07-29T02:50:21;22.20;60.40
20829;DHT22;10575;50.124;8.582;2022-07-29T02:52:54;22.20;60.80
20829;DHT22;10575;50.124;8.582;2022-07-29T02:55:42;22.10;61.00
20829;DHT22;10575;50.124;8.582;2022-07-29T02:58:14;22.10;61.50
20829;DHT22;10575;50.124;8.582;2022-07-29T03:00:41;22.10;61.20
20829;DHT22;10575;50.124;8.582;2022-07-29T03:03:12;22.00;61.90
20829;DHT22;10575;50.124;8.582;2022-07-29T03:05:38;22.00;62.10
20829;DHT22;10575;50.124;8.582;2022-07-29T03:08:06;22.00;62.80
20829;DHT22;10575;50.124;8.582;2022-07-29T03:10:39;21.90;62.70
20829;DHT22;10575;50.124;8.582;2022-07-29T03:13:23;21.90;63.20
20829;DHT22;10575;50.124;8.582;2022-07-29T03:15:52;21.90;63.90
20829;DHT22;10575;50.124;8.582;2022-07-29T03:18:23;21.80;64.20
20829;DHT22;10575;50.124;8.582;2022-07-29T03:20:51;21.70;65.00
20829;DHT22;10575;50.124;8.582;2022-07-29T03:23:43;21.60;65.60
20829;DHT22;10575;50.124;8.582;2022-07-29T03:26:11;21.60;66.50
20829;DHT22;10575;50.124;8.582;2022-07-29T03:28:36;21.50;66.80
20829;DHT22;10575;50.124;8.582;2022-07-29T03:31:02;21.50;67.10
20829;DHT22;10575;50.124;8.582;2022-07-29T03:33:28;21.60;67.30
20829;DHT22;10575;50.124;8.582;2022-07-29T03:35:56;21.60;67.40
20829;DHT22;10575;50.124;8.582;2022-07-29T03:38:25;21.70;67.30
20829;DHT22;10575;50.124;8.582;2022-07-29T03:40:55;21.80;67.10
20829;DHT22;10575;50.124;8.582;2022-07-29T03:43:38;21.80;66.70
20829;DHT22;10575;50.124;8.582;2022-07-29T03:46:06;21.90;66.30
20829;DHT22;10575;50.124;8.582;2022-07-29T03:48:34;21.80;66.80
20829;DHT22;10575;50.124;8.582;2022-07-29T03:51:09;21.70;67.80
20829;DHT22;10575;50.124;8.582;2022-07-29T03:53:35;21.50;68.50
20829;DHT22;10575;50.124;8.582;2022-07-29T03:56:02;21.40;69.30
20829;DHT22;10575;50.124;8.582;2022-07-29T03:58:30;21.40;70.40
20829;DHT22;10575;50.124;8.582;2022-07-29T04:00:56;21.40;70.40
20829;DHT22;10575;50.124;8.582;2022-07-29T04:03:22;21.40;70.80
20829;DHT22;10575;50.124;8.582;2022-07-29T04:06:02;21.40;71.00
20829;DHT22;10575;50.124;8.582;2022-07-29T04:08:28;21.20;72.60
20829;DHT22;10575;50.124;8.582;2022-07-29T04:10:53;21.10;74.10
20829;DHT22;10575;50.124;8.582;2022-07-29T04:13:20;21.00;74.70
20829;DHT22;10575;50.124;8.582;2022-07-29T04:15:48;20.80;76.40
20829;DHT22;10575;50.124;8.582;2022-07-29T04:18:14;20.80;77.60
20829;DHT22;10575;50.124;8.582;2022-07-29T04:20:39;20.70;79.50
20829;DHT22;10575;50.124;8.582;2022-07-29T04:23:05;20.60;81.10
20829;DHT22;10575;50.124;8.582;2022-07-29T04:25:30;20.60;82.60
20829;DHT22;10575;50.124;8.582;2022-07-29T04:27:56;20.70;83.00
20829;DHT22;10575;50.124;8.582;2022-07-29T04:30:29;20.80;82.80
20829;DHT22;10575;50.124;8.582;2022-07-29T04:32:55;20.80;84.00
20829;DHT22;10575;50.124;8.582;2022-07-29T04:35:21;20.80;84.50
20829;DHT22;10575;50.124;8.582;2022-07-29T04:37:46;20.80;84.80
20829;DHT22;10575;50.124;8.582;2022-07-29T04:40:15;20.50;86.90
20829;DHT22;10575;50.124;8.582;2022-07-29T04:42:41;20.30;88.90
20829;DHT22;10575;50.124;8.582;2022-07-29T04:45:06;20.30;89.70
20829;DHT22;10575;50.124;8.582;2022-07-29T04:47:32;20.30;90.00
20829;DHT22;10575;50.124;8.582;2022-07-29T04:49:58;20.40;90.50
20829;DHT22;10575;50.124;8.582;2022-07-29T04:52:23;20.50;90.70
20829;DHT22;10575;50.124;8.582;2022-07-29T04:54:49;20.60;90.90
20829;DHT22;10575;50.124;8.582;2022-07-29T04:57:15;20.70;91.00
20829;DHT22;10575;50.124;8.582;2022-07-29T04:59:40;20.70;90.80
20829;DHT22;10575;50.124;8.582;2022-07-29T05:02:06;20.70;90.70
20829;DHT22;10575;50.124;8.582;2022-07-29T05:04:31;20.60;90.60
20829;DHT22;10575;50.124;8.582;2022-07-29T05:06:57;20.60;90.90
20829;DHT22;10575;50.124;8.582;2022-07-29T05:09:22;20.50;91.40
20829;DHT22;10575;50.124;8.582;2022-07-29T05:11:48;20.40;92.00
20829;DHT22;10575;50.124;8.582;2022-07-29T05:14:13;20.40;92.40
20829;DHT22;10575;50.124;8.582;2022-07-29T05:16:39;20.40;92.90
20829;DHT22;10575;50.124;8.582;2022-07-29T05:19:05;20.50;92.60
20829;DHT22;10575;50.124;8.582;2022-07-29T05:21:31;20.50;92.70
20829;DHT22;10575;50.124;8.582;2022-07-29T05:23:57;20.50;92.80
20829;DHT22;10575;50.124;8.582;2022-07-29T05:26:23;20.50;92.90
20829;DHT22;10575;50.124;8.582;2022-07-29T05:28:48;20.60;92.10
20829;DHT22;10575;50.124;8.582;2022-07-29T05:31:14;20.70;92.50
20829;DHT22;10575;50.124;8.582;2022-07-29T05:33:40;20.90;91.70
20829;DHT22;10575;50.124;8.582;2022-07-29T05:36:06;21.10;90.70
20829;DHT22;10575;50.124;8.582;2022-07-29T05:38:33;21.30;90.20
20829;DHT22;10575;50.124;8.582;2022-07-29T05:40:59;21.50;88.40
20829;DHT22;10575;50.124;8.582;2022-07-29T05:43:28;21.60;87.80
20829;DHT22;10575;50.124;8.582;2022-07-29T05:45:53;21.80;88.10
20829;DHT22;10575;50.124;8.582;2022-07-29T05:48:19;22.00;86.00
20829;DHT22;10575;50.124;8.582;2022-07-29T05:50:45;22.20;85.40
20829;DHT22;10575;50.124;8.582;2022-07-29T05:53:10;22.70;83.20
20829;DHT22;10575;50.124;8.582;2022-07-29T05:55:36;23.20;80.00
20829;DHT22;10575;50.124;8.582;2022-07-29T05:58:02;23.60;77.80
20829;DHT22;10575;50.124;8.582;2022-07-29T06:00:27;24.20;73.90
20829;DHT22;10575;50.124;8.582;2022-07-29T06:02:53;25.10;70.60
20829;DHT22;10575;50.124;8.582;2022-07-29T06:05:18;26.50;64.80
20829;DHT22;10575;50.124;8.582;2022-07-29T06:07:44;28.00;59.20
20829;DHT22;10575;50.124;8.582;2022-07-29T06:10:10;29.80;54.10
20829;DHT22;10575;50.124;8.582;2022-07-29T06:12:35;31.10;49.50
20829;DHT22;10575;50.124;8.582;2022-07-29T06:15:01;31.80;47.50
20829;DHT22;10575;50.124;8.582;2022-07-29T06:17:27;32.70;45.20
20829;DHT22;10575;50.124;8.582;2022-07-29T06:19:52;33.90;42.80
20829;DHT22;10575;50.124;8.582;2022-07-29T06:22:18;33.60;42.40
20829;DHT22;10575;50.124;8.582;2022-07-29T06:24:43;32.60;43.60
20829;DHT22;10575;50.124;8.582;2022-07-29T06:27:12;31.20;46.00
20829;DHT22;10575;50.124;8.582;2022-07-29T06:29:38;31.20;46.20
20829;DHT22;10575;50.124;8.582;2022-07-29T06:32:04;30.40;47.80
20829;DHT22;10575;50.124;8.582;2022-07-29T06:34:30;30.20;48.00
20829;DHT22;10575;50.124;8.582;2022-07-29T06:36:55;30.40;47.90
20829;DHT22;10575;50.124;8.582;2022-07-29T06:39:21;30.50;47.60
20829;DHT22;10575;50.124;8.582;2022-07-29T06:41:50;31.10;46.40
20829;DHT22;10575;50.124;8.582;2022-07-29T06:44:17;31.40;45.30
20829;DHT22;10575;50.124;8.582;2022-07-29T06:46:42;32.80;44.50
20829;DHT22;10575;50.124;8.582;2022-07-29T06:49:09;35.00;40.20
20829;DHT22;10575;50.124;8.582;2022-07-29T06:51:35;36.60;36.60
20829;DHT22;10575;50.124;8.582;2022-07-29T06:54:01;36.80;36.20
20829;DHT22;10575;50.124;8.582;2022-07-29T06:56:27;36.70;37.00
20829;DHT22;10575;50.124;8.582;2022-07-29T06:58:52;35.80;36.30
20829;DHT22;10575;50.124;8.582;2022-07-29T07:01:18;34.40;38.30
20829;DHT22;10575;50.124;8.582;2022-07-29T07:03:43;33.90;39.10
20829;DHT22;10575;50.124;8.582;2022-07-29T07:06:09;33.30;39.60
20829;DHT22;10575;50.124;8.582;2022-07-29T07:08:35;33.80;39.30
20829;DHT22;10575;50.124;8.582;2022-07-29T07:11:00;34.60;37.50
20829;DHT22;10575;50.124;8.582;2022-07-29T07:13:26;35.30;35.80
20829;DHT22;10575;50.124;8.582;2022-07-29T07:15:51;35.30;35.70
20829;DHT22;10575;50.124;8.582;2022-07-29T07:18:17;35.60;36.00
20829;DHT22;10575;50.124;8.582;2022-07-29T07:20:44;37.10;33.40
20829;DHT22;10575;50.124;8.582;2022-07-29T07:23:10;38.60;31.80
20829;DHT22;10575;50.124;8.582;2022-07-29T07:25:36;39.70;30.30
20829;DHT22;10575;50.124;8.582;2022-07-29T07:28:02;41.10;28.80
20829;DHT22;10575;50.124;8.582;2022-07-29T07:30:28;41.20;28.70
20829;DHT22;10575;50.124;8.582;2022-07-29T07:32:54;41.10;28.20
20829;DHT22;10575;50.124;8.582;2022-07-29T07:35:20;40.60;28.80
20829;DHT22;10575;50.124;8.582;2022-07-29T07:37:46;41.50;28.30
20829;DHT22;10575;50.124;8.582;2022-07-29T07:40:12;42.20;27.20
20829;DHT22;10575;50.124;8.582;2022-07-29T07:42:39;42.60;26.80
20829;DHT22;10575;50.124;8.582;2022-07-29T07:45:04;42.60;26.70
20829;DHT22;10575;50.124;8.582;2022-07-29T07:47:35;44.50;25.90
20829;DHT22;10575;50.124;8.582;2022-07-29T07:50:03;47.00;23.50
20829;DHT22;10575;50.124;8.582;2022-07-29T07:52:29;48.70;22.80
20829;DHT22;10575;50.124;8.582;2022-07-29T07:55:00;47.00;23.30
20829;DHT22;10575;50.124;8.582;2022-07-29T07:57:32;46.60;23.40
20829;DHT22;10575;50.124;8.582;2022-07-29T07:59:57;47.30;23.20
20829;DHT22;10575;50.124;8.582;2022-07-29T08:02:26;48.50;22.90
20829;DHT22;10575;50.124;8.582;2022-07-29T08:04:54;50.00;21.50
20829;DHT22;10575;50.124;8.582;2022-07-29T08:07:19;49.30;21.20
20829;DHT22;10575;50.124;8.582;2022-07-29T08:09:45;48.90;21.20
20829;DHT22;10575;50.124;8.582;2022-07-29T08:12:10;48.40;21.60
20829;DHT22;10575;50.124;8.582;2022-07-29T08:14:36;47.90;21.90
20829;DHT22;10575;50.124;8.582;2022-07-29T08:17:02;48.10;21.70
20829;DHT22;10575;50.124;8.582;2022-07-29T08:19:27;49.50;20.60
20829;DHT22;10575;50.124;8.582;2022-07-29T08:21:53;50.20;19.70
20829;DHT22;10575;50.124;8.582;2022-07-29T08:24:20;50.70;19.60
20829;DHT22;10575;50.124;8.582;2022-07-29T08:27:04;51.00;19.20
20829;DHT22;10575;50.124;8.582;2022-07-29T08:29:30;53.10;18.90
20829;DHT22;10575;50.124;8.582;2022-07-29T08:31:55;54.40;17.60
20829;DHT22;10575;50.124;8.582;2022-07-29T08:34:21;52.40;18.50
20829;DHT22;10575;50.124;8.582;2022-07-29T08:36:46;50.40;19.20
20829;DHT22;10575;50.124;8.582;2022-07-29T08:39:12;50.20;19.50
20829;DHT22;10575;50.124;8.582;2022-07-29T08:41:38;51.70;19.30
20829;DHT22;10575;50.124;8.582;2022-07-29T08:44:03;51.70;19.40
20829;DHT22;10575;50.124;8.582;2022-07-29T08:46:29;50.70;19.90
20829;DHT22;10575;50.124;8.582;2022-07-29T08:48:55;51.10;18.90
20829;DHT22;10575;50.124;8.582;2022-07-29T08:51:21;51.60;19.30
20829;DHT22;10575;50.124;8.582;2022-07-29T08:53:49;51.80;19.00
20829;DHT22;10575;50.124;8.582;2022-07-29T08:56:16;54.10;18.00
20829;DHT22;10575;50.124;8.582;2022-07-29T08:58:43;53.90;17.40
20829;DHT22;10575;50.124;8.582;2022-07-29T09:01:10;53.60;18.00
20829;DHT22;10575;50.124;8.582;2022-07-29T09:03:38;55.10;16.90
20829;DHT22;10575;50.124;8.582;2022-07-29T09:06:05;55.30;17.20
20829;DHT22;10575;50.124;8.582;2022-07-29T09:08:31;54.50;17.30
20829;DHT22;10575;50.124;8.582;2022-07-29T09:10:58;54.70;17.60
20829;DHT22;10575;50.124;8.582;2022-07-29T09:13:25;55.90;17.10
20829;DHT22;10575;50.124;8.582;2022-07-29T09:15:51;55.60;16.70
20829;DHT22;10575;50.124;8.582;2022-07-29T09:18:39;54.70;17.40
20829;DHT22;10575;50.124;8.582;2022-07-29T09:21:07;53.80;17.70
20829;DHT22;10575;50.124;8.582;2022-07-29T09:26:28;55.50;17.10
20829;DHT22;10575;50.124;8.582;2022-07-29T09:28:54;53.10;18.70
20829;DHT22;10575;50.124;8.582;2022-07-29T09:31:32;53.90;17.90
20829;DHT22;10575;50.124;8.582;2022-07-29T09:33:59;54.10;17.80
20829;DHT22;10575;50.124;8.582;2022-07-29T09:36:26;51.10;18.60
20829;DHT22;10575;50.124;8.582;2022-07-29T09:39:01;46.90;21.20
20829;DHT22;10575;50.124;8.582;2022-07-29T09:41:28;43.80;23.70
20829;DHT22;10575;50.124;8.582;2022-07-29T09:43:57;42.00;25.60
20829;DHT22;10575;50.124;8.582;2022-07-29T09:46:24;40.90;26.40
20829;DHT22;10575;50.124;8.582;2022-07-29T09:49:09;39.20;27.70
20829;DHT22;10575;50.124;8.582;2022-07-29T09:51:36;37.60;30.70
20829;DHT22;10575;50.124;8.582;2022-07-29T09:54:02;36.50;32.00
20829;DHT22;10575;50.124;8.582;2022-07-29T09:56:40;35.80;32.60
20829;DHT22;10575;50.124;8.582;2022-07-29T09:59:06;35.40;33.50
20829;DHT22;10575;50.124;8.582;2022-07-29T10:01:32;35.60;32.10
20829;DHT22;10575;50.124;8.582;2022-07-29T10:03:57;35.30;33.10
20829;DHT22;10575;50.124;8.582;2022-07-29T10:06:23;34.70;33.90
20829;DHT22;10575;50.124;8.582;2022-07-29T10:08:51;34.40;34.10
20829;DHT22;10575;50.124;8.582;2022-07-29T10:11:20;34.20;34.40
20829;DHT22;10575;50.124;8.582;2022-07-29T10:13:47;34.10;35.10
20829;DHT22;10575;50.124;8.582;2022-07-29T10:16:15;33.80;35.40
20829;DHT22;10575;50.124;8.582;2022-07-29T10:18:42;33.90;35.30
20829;DHT22;10575;50.124;8.582;2022-07-29T10:21:09;34.10;36.70
20829;DHT22;10575;50.124;8.582;2022-07-29T10:23:35;34.30;36.10
20829;DHT22;10575;50.124;8.582;2022-07-29T10:26:02;34.20;35.00
20829;DHT22;10575;50.124;8.582;2022-07-29T10:28:30;34.10;37.30
20829;DHT22;10575;50.124;8.582;2022-07-29T10:31:01;34.00;36.10
20829;DHT22;10575;50.124;8.582;2022-07-29T10:33:51;33.90;37.50
20829;DHT22;10575;50.124;8.582;2022-07-29T10:38:55;33.50;36.50
20829;DHT22;10575;50.124;8.582;2022-07-29T10:44:22;33.40;36.90
20829;DHT22;10575;50.124;8.582;2022-07-29T10:46:49;33.20;38.00
20829;DHT22;10575;50.124;8.582;2022-07-29T10:49:27;33.10;37.50
20829;DHT22;10575;50.124;8.582;2022-07-29T10:52:07;32.80;39.50
20829;DHT22;10575;50.124;8.582;2022-07-29T10:59:39;32.80;39.00
20829;DHT22;10575;50.124;8.582;2022-07-29T11:05:04;33.20;38.80
20829;DHT22;10575;50.124;8.582;2022-07-29T11:07:31;33.50;38.60
20829;DHT22;10575;50.124;8.582;2022-07-29T11:10:21;33.50;38.80
20829;DHT22;10575;50.124;8.582;2022-07-29T11:12:47;33.50;37.90
20829;DHT22;10575;50.124;8.582;2022-07-29T11:15:18;33.50;38.90
20829;DHT22;10575;50.124;8.582;2022-07-29T11:23:32;32.50;40.80
20829;DHT22;10575;50.124;8.582;2022-07-29T11:28:53;32.70;40.90
20829;DHT22;10575;50.124;8.582;2022-07-29T11:34:16;32.70;42.00
20829;DHT22;10575;50.124;8.582;2022-07-29T11:45:13;33.20;39.80
20829;DHT22;10575;50.124;8.582;2022-07-29T11:48:01;33.40;39.40
20829;DHT22;10575;50.124;8.582;2022-07-29T11:50:35;33.60;38.20
20829;DHT22;10575;50.124;8.582;2022-07-29T11:53:10;33.60;41.40
20829;DHT22;10575;50.124;8.582;2022-07-29T11:55:38;33.50;40.20
20829;DHT22;10575;50.124;8.582;2022-07-29T11:58:04;33.50;39.70
20829;DHT22;10575;50.124;8.582;2022-07-29T12:00:31;33.20;39.50
20829;DHT22;10575;50.124;8.582;2022-07-29T12:03:02;32.90;39.30
20829;DHT22;10575;50.124;8.582;2022-07-29T12:05:38;32.60;40.40
20829;DHT22;10575;50.124;8.582;2022-07-29T12:10:34;32.90;39.70
20829;DHT22;10575;50.124;8.582;2022-07-29T12:12:59;33.10;39.60
20829;DHT22;10575;50.124;8.582;2022-07-29T12:15:25;33.10;39.70
20829;DHT22;10575;50.124;8.582;2022-07-29T12:17:51;33.10;40.20
20829;DHT22;10575;50.124;8.582;2022-07-29T12:20:25;33.00;39.20
20829;DHT22;10575;50.124;8.582;2022-07-29T12:23:05;32.90;39.50
20829;DHT22;10575;50.124;8.582;2022-07-29T12:25:33;32.50;39.80
20829;DHT22;10575;50.124;8.582;2022-07-29T12:28:11;32.30;41.00
20829;DHT22;10575;50.124;8.582;2022-07-29T12:30:43;32.30;40.90
20829;DHT22;10575;50.124;8.582;2022-07-29T12:33:21;32.20;41.40
20829;DHT22;10575;50.124;8.582;2022-07-29T12:35:51;32.10;43.50
20829;DHT22;10575;50.124;8.582;2022-07-29T12:38:19;32.20;41.20
20829;DHT22;10575;50.124;8.582;2022-07-29T12:40:45;32.20;40.70
20829;DHT22;10575;50.124;8.582;2022-07-29T12:43:22;32.10;42.10
20829;DHT22;10575;50.124;8.582;2022-07-29T12:45:53;32.00;42.40
20829;DHT22;10575;50.124;8.582;2022-07-29T12:48:39;31.70;42.90
20829;DHT22;10575;50.124;8.582;2022-07-29T12:51:06;31.70;43.00
20829;DHT22;10575;50.124;8.582;2022-07-29T12:53:34;31.70;42.70
20829;DHT22;10575;50.124;8.582;2022-07-29T12:56:00;31.60;42.70
20829;DHT22;10575;50.124;8.582;2022-07-29T12:58:39;31.40;43.00
20829;DHT22;10575;50.124;8.582;2022-07-29T13:01:05;31.30;43.60
20829;DHT22;10575;50.124;8.582;2022-07-29T13:03:46;31.40;43.00
20829;DHT22;10575;50.124;8.582;2022-07-29T13:06:28;31.40;43.80
20829;DHT22;10575;50.124;8.582;2022-07-29T13:09:05;31.40;44.20
20829;DHT22;10575;50.124;8.582;2022-07-29T13:11:33;31.70;42.40
20829;DHT22;10575;50.124;8.582;2022-07-29T13:13:59;32.00;41.80
20829;DHT22;10575;50.124;8.582;2022-07-29T13:16:27;31.80;42.20
20829;DHT22;10575;50.124;8.582;2022-07-29T13:19:11;31.60;42.80
20829;DHT22;10575;50.124;8.582;2022-07-29T13:21:38;31.40;42.80
20829;DHT22;10575;50.124;8.582;2022-07-29T13:24:05;31.40;43.80
20829;DHT22;10575;50.124;8.582;2022-07-29T13:26:31;31.40;44.10
20829;DHT22;10575;50.124;8.582;2022-07-29T13:28:57;31.40;44.20
20829;DHT22;10575;50.124;8.582;2022-07-29T13:31:23;31.60;44.70
20829;DHT22;10575;50.124;8.582;2022-07-29T13:33:49;31.80;42.80
20829;DHT22;10575;50.124;8.582;2022-07-29T13:36:14;32.00;43.20
20829;DHT22;10575;50.124;8.582;2022-07-29T13:38:40;31.90;43.10
20829;DHT22;10575;50.124;8.582;2022-07-29T13:41:06;32.10;43.00
20829;DHT22;10575;50.124;8.582;2022-07-29T13:43:31;32.20;43.00
20829;DHT22;10575;50.124;8.582;2022-07-29T13:45:57;32.40;41.90
20829;DHT22;10575;50.124;8.582;2022-07-29T13:48:23;32.60;41.10
20829;DHT22;10575;50.124;8.582;2022-07-29T13:50:48;32.80;41.70
20829;DHT22;10575;50.124;8.582;2022-07-29T13:53:14;32.80;42.30
20829;DHT22;10575;50.124;8.582;2022-07-29T13:55:39;32.70;41.30
20829;DHT22;10575;50.124;8.582;2022-07-29T13:58:05;32.50;41.50
20829;DHT22;10575;50.124;8.582;2022-07-29T14:00:31;32.40;40.10
20829;DHT22;10575;50.124;8.582;2022-07-29T14:02:56;32.30;41.30
20829;DHT22;10575;50.124;8.582;2022-07-29T14:05:22;32.20;41.60
20829;DHT22;10575;50.124;8.582;2022-07-29T14:07:48;32.00;41.50
20829;DHT22;10575;50.124;8.582;2022-07-29T14:10:14;31.70;42.50
20829;DHT22;10575;50.124;8.582;2022-07-29T14:12:39;31.60;42.50
20829;DHT22;10575;50.124;8.582;2022-07-29T14:15:07;31.40;42.60
20829;DHT22;10575;50.124;8.582;2022-07-29T14:17:33;31.10;42.90
20829;DHT22;10575;50.124;8.582;2022-07-29T14:20:00;30.80;43.80
20829;DHT22;10575;50.124;8.582;2022-07-29T14:22:26;30.70;45.00
20829;DHT22;10575;50.124;8.582;2022-07-29T14:24:51;30.70;46.30
20829;DHT22;10575;50.124;8.582;2022-07-29T14:27:17;30.50;48.00
20829;DHT22;10575;50.124;8.582;2022-07-29T14:29:43;30.30;49.30
20829;DHT22;10575;50.124;8.582;2022-07-29T14:32:09;30.10;50.30
20829;DHT22;10575;50.124;8.582;2022-07-29T14:34:36;29.90;50.40
20829;DHT22;10575;50.124;8.582;2022-07-29T14:37:02;29.80;50.70
20829;DHT22;10575;50.124;8.582;2022-07-29T14:39:30;29.90;50.10
20829;DHT22;10575;50.124;8.582;2022-07-29T14:41:55;30.00;49.40
20829;DHT22;10575;50.124;8.582;2022-07-29T14:44:21;29.90;49.20
20829;DHT22;10575;50.124;8.582;2022-07-29T14:46:47;29.80;49.70
20829;DHT22;10575;50.124;8.582;2022-07-29T14:49:12;29.70;50.20
20829;DHT22;10575;50.124;8.582;2022-07-29T14:51:38;29.70;50.90
20829;DHT22;10575;50.124;8.582;2022-07-29T14:54:03;29.70;51.20
20829;DHT22;10575;50.124;8.582;2022-07-29T14:56:29;29.90;51.50
20829;DHT22;10575;50.124;8.582;2022-07-29T14:58:58;30.00;50.90
20829;DHT22;10575;50.124;8.582;2022-07-29T15:01:24;30.00;51.00
20829;DHT22;10575;50.124;8.582;2022-07-29T15:03:50;30.20;50.40
20829;DHT22;10575;50.124;8.582;2022-07-29T15:06:16;30.30;49.80
20829;DHT22;10575;50.124;8.582;2022-07-29T15:08:41;30.40;50.10
20829;DHT22;10575;50.124;8.582;2022-07-29T15:11:07;30.40;50.40
20829;DHT22;10575;50.124;8.582;2022-07-29T15:13:33;30.30;47.40
20829;DHT22;10575;50.124;8.582;2022-07-29T15:15:59;30.30;48.60
20829;DHT22;10575;50.124;8.582;2022-07-29T15:18:25;30.30;48.70
20829;DHT22;10575;50.124;8.582;2022-07-29T15:20:50;30.40;47.70
20829;DHT22;10575;50.124;8.582;2022-07-29T15:23:16;30.40;46.40
20829;DHT22;10575;50.124;8.582;2022-07-29T15:25:41;30.40;45.60
20829;DHT22;10575;50.124;8.582;2022-07-29T15:28:07;30.50;45.00
20829;DHT22;10575;50.124;8.582;2022-07-29T15:30:34;30.50;44.10
20829;DHT22;10575;50.124;8.582;2022-07-29T15:33:02;30.30;42.80
20829;DHT22;10575;50.124;8.582;2022-07-29T15:35:27;30.20;42.50
20829;DHT22;10575;50.124;8.582;2022-07-29T15:37:53;30.20;42.20
20829;DHT22;10575;50.124;8.582;2022-07-29T15:40:20;30.10;41.50
20829;DHT22;10575;50.124;8.582;2022-07-29T15:42:45;29.90;41.20
20829;DHT22;10575;50.124;8.582;2022-07-29T15:45:11;29.80;41.90
20829;DHT22;10575;50.124;8.582;2022-07-29T15:47:36;30.00;42.30
20829;DHT22;10575;50.124;8.582;2022-07-29T15:50:02;30.20;42.60
20829;DHT22;10575;50.124;8.582;2022-07-29T15:52:28;30.60;41.40
20829;DHT22;10575;50.124;8.582;2022-07-29T15:54:54;30.70;40.70
20829;DHT22;10575;50.124;8.582;2022-07-29T15:57:20;30.70;39.10
20829;DHT22;10575;50.124;8.582;2022-07-29T15:59:46;30.60;40.50
20829;DHT22;10575;50.124;8.582;2022-07-29T16:02:11;30.50;41.60
20829;DHT22;10575;50.124;8.582;2022-07-29T16:04:37;30.40;41.00
20829;DHT22;10575;50.124;8.582;2022-07-29T16:07:03;30.40;41.00
20829;DHT22;10575;50.124;8.582;2022-07-29T16:09:28;30.40;39.80
20829;DHT22;10575;50.124;8.582;2022-07-29T16:11:54;30.40;40.90
20829;DHT22;10575;50.124;8.582;2022-07-29T16:14:20;30.50;41.10
20829;DHT22;10575;50.124;8.582;2022-07-29T16:16:46;30.50;42.50
20829;DHT22;10575;50.124;8.582;2022-07-29T16:19:12;30.20;44.40
20829;DHT22;10575;50.124;8.582;2022-07-29T16:21:38;29.80;45.50